Time;durP1;ratioP1;P1;durP2;ratioP2;P2;SDS_P1;SDS_P2;PMS_P1;PMS_P2;Temp;Humidity;BMP_temperature;BMP_pressure;BME280_temperature;BME280_humidity;BME280_pressure;Samples;Min_cycle;Max_cycle;Signal;HPM_P1;HPM_P2
2023/08/15 00:00:38;;;;;;;7.90;5.70;;;19.40;99.90;;;;;;5036996;28;20037;-69
2023/08/15 00:03:04;;;;;;;9.80;5.13;;;19.40;99.90;;;;;;5039874;28;20045;-69
2023/08/15 00:05:30;;;;;;;10.07;5.00;;;19.40;99.90;;;;;;5054998;28;20523;-67
2023/08/15 00:07:56;;;;;;;6.70;5.07;;;19.40;99.90;;;;;;5039731;28;20063;-68
2023/08/15 00:10:22;;;;;;;11.00;5.50;;;19.30;99.90;;;;;;5037534;28;20045;-68
2023/08/15 00:12:47;;;;;;;9.93;5.10;;;19.30;99.90;;;;;;5038574;28;20048;-69
2023/08/15 00:15:13;;;;;;;9.60;5.55;;;19.30;99.90;;;;;;5039472;28;20100;-68
2023/08/15 00:17:39;;;;;;;11.35;6.30;;;19.30;99.90;;;;;;5037314;28;20033;-68
2023/08/15 00:20:06;;;;;;;12.93;5.45;;;19.20;99.90;;;;;;5057749;28;20049;-70
2023/08/15 00:22:32;;;;;;;9.68;6.28;;;19.20;99.90;;;;;;5036900;28;20071;-69
2023/08/15 00:25:00;;;;;;;10.77;6.25;;;19.20;99.90;;;;;;5039036;28;20041;-68
2023/08/15 00:27:26;;;;;;;9.65;5.95;;;19.20;99.90;;;;;;5037152;28;20103;-69
2023/08/15 00:29:52;;;;;;;10.98;6.38;;;19.10;99.90;;;;;;5038574;28;20053;-69
2023/08/15 00:32:17;;;;;;;11.25;6.90;;;19.10;99.90;;;;;;5039068;28;20044;-68
2023/08/15 00:34:43;;;;;;;13.57;7.43;;;18.90;99.90;;;;;;5054633;28;20044;-68
2023/08/15 00:37:09;;;;;;;12.25;6.43;;;18.90;99.90;;;;;;5039103;28;20049;-69
2023/08/15 00:39:34;;;;;;;12.82;7.60;;;18.90;99.90;;;;;;5036130;28;20044;-69
2023/08/15 00:42:03;;;;;;;10.10;6.90;;;18.80;99.90;;;;;;5056995;28;20075;-69
2023/08/15 00:44:31;;;;;;;15.32;7.85;;;19.00;99.90;;;;;;5036694;28;20054;-68
2023/08/15 00:46:59;;;;;;;11.38;7.40;;;19.00;99.90;;;;;;5038624;28;20561;-69
2023/08/15 00:49:25;;;;;;;13.73;7.72;;;19.00;99.90;;;;;;5039051;28;20045;-69
2023/08/15 00:51:51;;;;;;;13.45;7.32;;;18.90;99.90;;;;;;5054696;28;20052;-69
2023/08/15 00:54:17;;;;;;;13.95;8.13;;;18.90;99.90;;;;;;5039113;28;20115;-69
2023/08/15 00:56:43;;;;;;;10.68;7.68;;;18.90;99.90;;;;;;5054082;28;20045;-68
2023/08/15 00:59:09;;;;;;;13.75;8.52;;;19.00;99.90;;;;;;5056932;28;20055;-69
2023/08/15 01:01:36;;;;;;;12.82;8.02;;;19.00;99.90;;;;;;5036507;28;20108;-69
2023/08/15 01:04:06;;;;;;;13.45;8.98;;;19.00;99.90;;;;;;5038582;28;20100;-70
2023/08/15 01:06:32;;;;;;;16.65;8.88;;;19.00;99.90;;;;;;5056533;28;20128;-69
2023/08/15 01:08:59;;;;;;;13.57;8.63;;;19.00;99.90;;;;;;5036266;28;20099;-69
2023/08/15 01:11:32;;;;;;;15.38;8.20;;;19.00;99.90;;;;;;5056853;28;20048;-69
2023/08/15 01:14:02;;;;;;;;;;;19.00;99.90;;;;;;5036359;28;20109;-68
2023/08/15 01:16:37;;;;;;;16.10;8.18;;;19.00;99.90;;;;;;5038852;28;19972;-68
2023/08/15 01:19:18;;;;;;;12.45;8.07;;;18.90;99.90;;;;;;5054954;28;20052;-69
2023/08/15 01:21:48;;;;;;;14.00;8.23;;;18.90;99.90;;;;;;5054412;28;20045;-68
2023/08/15 01:24:15;;;;;;;16.35;9.27;;;19.00;99.90;;;;;;5038878;28;20104;-69
2023/08/15 01:26:41;;;;;;;11.57;8.77;;;18.90;99.90;;;;;;5035608;28;20061;-69
2023/08/15 01:29:07;;;;;;;17.33;8.65;;;18.90;99.90;;;;;;5022350;28;20048;-69
2023/08/15 01:31:49;;;;;;;13.90;8.52;;;18.90;99.90;;;;;;5053933;28;20049;-69
2023/08/15 01:34:33;;;;;;;11.95;8.60;;;18.80;99.90;;;;;;5037425;28;20091;-69
2023/08/15 01:37:14;;;;;;;11.13;8.07;;;18.80;99.90;;;;;;5056396;28;20083;-69
2023/08/15 01:39:43;;;;;;;11.65;8.45;;;18.80;99.90;;;;;;5069566;28;20869;-70
2023/08/15 01:42:10;;;;;;;16.83;9.00;;;18.80;99.90;;;;;;5059051;28;20049;-69
2023/08/15 01:44:37;;;;;;;21.40;10.23;;;18.80;99.90;;;;;;5040239;28;20141;-69
2023/08/15 01:47:03;;;;;;;13.05;8.82;;;18.80;99.90;;;;;;5075988;28;20076;-69
2023/08/15 01:49:28;;;;;;;12.15;8.98;;;18.80;99.90;;;;;;5059229;28;20125;-69
2023/08/15 01:51:54;;;;;;;13.77;9.48;;;18.70;99.90;;;;;;5042723;28;20061;-70
2023/08/15 01:54:23;;;;;;;16.85;9.90;;;18.70;99.90;;;;;;5045891;28;20082;-69
2023/08/15 01:56:49;;;;;;;14.00;9.15;;;18.70;99.90;;;;;;5077330;28;20050;-68
2023/08/15 01:59:14;;;;;;;13.68;8.73;;;18.70;99.90;;;;;;5079916;28;20308;-68
2023/08/15 02:01:40;;;;;;;16.02;9.88;;;18.60;99.90;;;;;;5077832;28;20052;-70
2023/08/15 02:04:06;;;;;;;16.83;8.85;;;18.60;99.90;;;;;;5044717;28;20051;-69
2023/08/15 02:06:32;;;;;;;18.15;9.52;;;18.60;99.90;;;;;;5044732;28;20050;-69
2023/08/15 02:08:57;;;;;;;14.52;9.57;;;18.60;99.90;;;;;;5042638;28;20448;-69
2023/08/15 02:11:23;;;;;;;13.90;10.20;;;18.60;99.90;;;;;;5079889;28;20045;-68
2023/08/15 02:13:49;;;;;;;13.15;10.35;;;18.60;99.90;;;;;;5058640;28;20104;-69
2023/08/15 02:16:15;;;;;;;15.77;10.88;;;18.60;99.90;;;;;;5079751;28;20052;-69
2023/08/15 02:18:40;;;;;;;16.67;10.15;;;18.60;99.90;;;;;;5059080;28;20048;-70
2023/08/15 02:21:06;;;;;;;16.80;9.85;;;18.70;99.90;;;;;;5044157;28;20044;-69
2023/08/15 02:23:32;;;;;;;15.45;11.02;;;18.60;99.90;;;;;;5060956;28;20509;-69
2023/08/15 02:25:57;;;;;;;15.65;10.30;;;18.70;99.90;;;;;;5077762;28;20118;-69
2023/08/15 02:28:23;;;;;;;16.83;11.80;;;18.70;99.90;;;;;;5062055;28;20066;-69
2023/08/15 02:30:49;;;;;;;14.38;11.23;;;18.70;99.90;;;;;;5059011;28;20112;-68
2023/08/15 02:33:15;;;;;;;15.80;10.05;;;18.70;99.90;;;;;;5061921;28;20045;-68
2023/08/15 02:35:41;;;;;;;18.75;11.25;;;18.70;99.90;;;;;;5059146;28;20041;-69
2023/08/15 02:38:08;;;;;;;15.05;10.60;;;18.70;99.90;;;;;;5079729;28;20103;-69
2023/08/15 02:40:33;;;;;;;17.10;11.60;;;18.70;99.90;;;;;;5060953;28;20044;-69
2023/08/15 02:42:59;;;;;;;19.92;12.07;;;18.70;99.90;;;;;;5043510;28;20047;-68
2023/08/15 02:45:25;;;;;;;18.33;11.55;;;18.70;99.90;;;;;;5061914;28;20075;-69
2023/08/15 02:47:51;;;;;;;16.98;11.05;;;18.70;99.90;;;;;;5042445;28;20053;-69
2023/08/15 02:50:17;;;;;;;15.98;11.57;;;18.80;99.90;;;;;;5079392;28;20193;-69
2023/08/15 02:52:42;;;;;;;15.57;11.00;;;18.80;99.90;;;;;;5076915;28;20083;-69
2023/08/15 02:55:08;;;;;;;16.20;12.23;;;18.80;99.90;;;;;;5061578;28;20047;-69
2023/08/15 02:57:34;;;;;;;16.75;11.40;;;18.80;99.90;;;;;;5060029;28;20044;-69
2023/08/15 03:00:00;;;;;;;14.85;11.20;;;18.80;99.90;;;;;;5059979;28;20044;-69
2023/08/15 03:02:26;;;;;;;15.27;10.98;;;18.80;99.90;;;;;;5079589;28;20083;-68
2023/08/15 03:04:52;;;;;;;15.73;10.77;;;18.80;99.90;;;;;;5076559;28;20040;-69
2023/08/15 03:07:18;;;;;;;15.32;10.80;;;18.80;99.90;;;;;;5079529;28;20044;-68
2023/08/15 03:09:44;;;;;;;14.50;11.13;;;18.80;99.90;;;;;;5058600;28;20041;-69
2023/08/15 03:12:09;;;;;;;16.70;10.98;;;18.80;99.90;;;;;;5079166;28;20050;-70
2023/08/15 03:14:35;;;;;;;15.10;10.88;;;18.80;99.90;;;;;;5077449;28;20107;-68
2023/08/15 03:17:02;;;;;;;15.27;10.90;;;18.80;99.90;;;;;;5078129;28;20054;-69
2023/08/15 03:19:28;;;;;;;14.85;10.75;;;18.80;99.90;;;;;;5078797;28;20044;-69
2023/08/15 03:21:53;;;;;;;14.35;10.40;;;18.80;99.90;;;;;;5042091;28;20044;-68
2023/08/15 03:24:19;;;;;;;13.60;10.93;;;18.80;99.90;;;;;;5078975;28;20044;-69
2023/08/15 03:26:45;;;;;;;15.52;11.35;;;18.80;99.90;;;;;;5041140;28;20055;-69
2023/08/15 03:29:11;;;;;;;16.05;11.20;;;18.80;99.90;;;;;;5061112;28;20043;-69
2023/08/15 03:31:36;;;;;;;16.52;11.20;;;18.80;99.90;;;;;;5058791;28;20158;-69
2023/08/15 03:34:02;;;;;;;12.05;10.70;;;18.80;99.90;;;;;;5078004;28;20076;-69
2023/08/15 03:36:28;;;;;;;16.92;12.07;;;18.80;99.90;;;;;;5060491;28;20108;-68
2023/08/15 03:38:54;;;;;;;12.55;10.93;;;18.80;99.90;;;;;;5058298;28;20045;-69
2023/08/15 03:41:21;;;;;;;13.30;11.13;;;18.80;99.90;;;;;;5060845;28;20091;-70
2023/08/15 03:43:46;;;;;;;19.45;11.45;;;18.90;99.90;;;;;;5075914;28;20123;-69
2023/08/15 03:46:12;;;;;;;15.00;11.95;;;18.80;99.90;;;;;;5060740;28;20072;-69
2023/08/15 03:48:38;;;;;;;14.05;11.50;;;18.90;99.90;;;;;;5057954;28;20048;-68
2023/08/15 03:51:04;;;;;;;14.75;11.45;;;18.80;99.90;;;;;;5077859;28;20507;-68
2023/08/15 03:53:30;;;;;;;14.80;11.05;;;18.90;99.90;;;;;;5077728;28;20052;-69
2023/08/15 03:55:56;;;;;;;16.08;11.98;;;18.80;99.90;;;;;;5075943;28;20147;-69
2023/08/15 03:58:22;;;;;;;14.85;11.25;;;18.90;99.90;;;;;;5060144;28;20051;-69
2023/08/15 04:00:49;;;;;;;15.55;12.05;;;18.90;99.90;;;;;;5075236;28;20048;-69
2023/08/15 04:03:15;;;;;;;19.15;12.45;;;19.00;99.90;;;;;;5077811;28;20036;-70
2023/08/15 04:05:48;;;;;;;17.08;12.02;;;19.00;99.90;;;;;;5075405;28;20114;-69
2023/08/15 04:08:15;;;;;;;16.25;12.25;;;19.00;99.90;;;;;;5059574;28;20059;-69
2023/08/15 04:10:43;;;;;;;17.45;13.13;;;19.00;99.90;;;;;;5059480;28;20033;-70
2023/08/15 04:13:10;;;;;;;19.67;12.75;;;19.00;99.90;;;;;;5057121;28;20044;-69
2023/08/15 04:15:36;;;;;;;17.95;12.88;;;19.10;99.90;;;;;;5077908;28;20134;-69
2023/08/15 04:18:07;;;;;;;17.60;12.43;;;19.10;99.90;;;;;;5056748;28;20056;-69
2023/08/15 04:20:37;;;;;;;17.52;12.00;;;19.10;99.90;;;;;;5077799;28;20049;-68
2023/08/15 04:23:04;;;;;;;21.55;12.85;;;19.10;99.90;;;;;;5075629;28;20066;-68
2023/08/15 04:25:30;;;;;;;19.00;13.27;;;19.10;99.90;;;;;;5058706;28;20060;-68
2023/08/15 04:27:55;;;;;;;20.55;13.68;;;19.10;99.90;;;;;;5077738;28;20040;-67
2023/08/15 04:30:21;;;;;;;20.92;13.73;;;19.10;99.90;;;;;;5075118;28;20072;-68
2023/08/15 04:32:49;;;;;;;18.90;14.15;;;19.20;99.90;;;;;;5059664;28;20052;-69
2023/08/15 04:35:15;;;;;;;20.20;13.82;;;19.20;99.90;;;;;;5056735;28;20060;-69
2023/08/15 04:37:41;;;;;;;21.60;13.63;;;19.20;99.90;;;;;;5059447;28;20131;-69
2023/08/15 04:40:12;;;;;;;19.92;14.20;;;19.20;99.90;;;;;;5075040;28;20048;-69
2023/08/15 04:42:38;;;;;;;19.95;13.82;;;19.20;99.90;;;;;;5076661;28;20047;-69
2023/08/15 04:45:05;;;;;;;19.95;13.43;;;19.20;99.90;;;;;;5077368;28;20090;-70
2023/08/15 04:47:32;;;;;;;18.88;13.32;;;19.20;99.90;;;;;;5074926;28;20452;-70
2023/08/15 04:49:58;;;;;;;21.98;13.77;;;19.20;99.90;;;;;;5059336;28;20512;-69
2023/08/15 04:52:24;;;;;;;19.67;13.95;;;19.20;99.90;;;;;;5039947;28;20063;-69
2023/08/15 04:54:50;;;;;;;17.75;13.32;;;19.20;99.90;;;;;;5059361;28;20037;-69
2023/08/15 04:57:16;;;;;;;19.08;12.80;;;19.30;99.90;;;;;;5075485;28;20091;-68
2023/08/15 04:59:42;;;;;;;20.95;13.55;;;19.30;99.90;;;;;;5076716;28;20496;-69
2023/08/15 05:02:07;;;;;;;19.73;13.18;;;19.30;99.90;;;;;;5077120;28;20056;-69
2023/08/15 05:04:33;;;;;;;20.65;12.65;;;19.30;99.90;;;;;;5057032;28;20047;-69
2023/08/15 05:07:00;;;;;;;17.73;13.27;;;19.30;99.90;;;;;;5043250;28;20044;-69
2023/08/15 05:09:30;;;;;;;18.10;13.27;;;19.30;99.90;;;;;;5074736;28;20048;-70
2023/08/15 05:11:56;;;;;;;18.83;13.00;;;19.30;99.90;;;;;;5077645;28;20049;-69
2023/08/15 05:14:22;;;;;;;16.40;12.73;;;19.30;99.90;;;;;;5075108;28;20106;-70
2023/08/15 05:16:48;;;;;;;16.67;12.60;;;19.30;99.90;;;;;;5076774;28;20053;-69
2023/08/15 05:19:14;;;;;;;19.35;11.82;;;19.30;99.90;;;;;;5058896;28;20071;-69
2023/08/15 05:21:41;;;;;;;22.88;13.05;;;19.40;99.90;;;;;;5040356;28;20052;-70
2023/08/15 05:24:07;;;;;;;18.30;12.23;;;19.40;99.90;;;;;;5077790;28;20083;-70
2023/08/15 05:26:33;;;;;;;18.38;11.10;;;19.30;99.90;;;;;;5078347;28;20052;-69
2023/08/15 05:28:58;;;;;;;18.88;10.77;;;19.40;99.90;;;;;;5063073;28;20049;-68
2023/08/15 05:31:27;;;;;;;17.85;10.77;;;19.40;99.90;;;;;;5078660;28;20741;-70
2023/08/15 05:33:53;;;;;;;19.63;10.98;;;19.30;99.90;;;;;;5062580;28;20040;-70
2023/08/15 05:36:20;;;;;;;18.55;11.32;;;19.40;99.90;;;;;;5080258;28;20052;-69
2023/08/15 05:38:45;;;;;;;19.35;10.68;;;19.40;99.90;;;;;;5078555;28;20578;-70
2023/08/15 05:41:11;;;;;;;15.43;10.43;;;19.40;99.90;;;;;;5080955;28;20044;-70
2023/08/15 05:43:37;;;;;;;18.70;10.90;;;19.40;99.90;;;;;;5077821;28;20041;-70
2023/08/15 05:46:03;;;;;;;15.77;10.05;;;19.40;99.90;;;;;;5062562;28;20510;-69
2023/08/15 05:48:30;;;;;;;18.70;11.05;;;19.40;99.90;;;;;;5060134;28;20036;-70
2023/08/15 05:50:56;;;;;;;16.13;10.88;;;19.40;99.90;;;;;;5058844;28;20064;-71
2023/08/15 05:53:22;;;;;;;19.23;10.85;;;19.40;99.90;;;;;;5059918;28;20053;-70
2023/08/15 05:55:50;;;;;;;15.90;10.15;;;19.40;99.90;;;;;;5058748;28;20055;-72
2023/08/15 05:58:16;;;;;;;15.60;10.15;;;19.40;99.90;;;;;;5059126;28;20123;-71
2023/08/15 06:00:42;;;;;;;15.60;10.50;;;19.40;99.90;;;;;;5057793;28;20057;-70
2023/08/15 06:03:08;;;;;;;19.90;10.27;;;19.40;99.90;;;;;;5059341;28;20041;-70
2023/08/15 06:05:33;;;;;;;17.50;9.60;;;19.50;99.90;;;;;;5057995;28;20116;-70
2023/08/15 06:07:59;;;;;;;15.55;9.93;;;19.40;99.90;;;;;;5057447;28;20047;-72
2023/08/15 06:10:25;;;;;;;17.08;10.13;;;19.40;99.90;;;;;;5058803;28;20495;-70
2023/08/15 06:12:51;;;;;;;13.05;9.38;;;19.40;99.90;;;;;;5056830;28;20044;-71
2023/08/15 06:15:17;;;;;;;15.13;9.32;;;19.40;99.90;;;;;;5041908;28;20462;-70
2023/08/15 06:17:43;;;;;;;15.75;9.57;;;19.50;99.90;;;;;;5057241;28;20145;-71
2023/08/15 06:20:10;;;;;;;16.10;9.65;;;19.50;99.90;;;;;;5060154;28;20468;-71
2023/08/15 06:22:37;;;;;;;11.30;8.07;;;19.60;99.90;;;;;;5055994;28;20072;-72
2023/08/15 06:25:03;;;;;;;13.55;9.02;;;19.60;99.90;;;;;;5059644;28;20069;-72
2023/08/15 06:27:28;;;;;;;12.50;8.25;;;19.70;99.90;;;;;;5058268;28;20096;-70
2023/08/15 06:29:54;;;;;;;15.10;8.32;;;19.80;99.90;;;;;;5058789;28;20084;-70
2023/08/15 06:32:30;;;;;;;10.85;7.70;;;19.80;99.90;;;;;;5060238;28;20117;-71
2023/08/15 06:34:56;;;;;;;14.05;8.05;;;20.00;99.90;;;;;;5055330;28;20053;-70
2023/08/15 06:37:22;;;;;;;15.73;7.20;;;20.20;99.90;;;;;;5058964;28;20036;-72
2023/08/15 06:39:48;;;;;;;18.00;7.93;;;20.30;99.90;;;;;;5057179;28;20049;-70
2023/08/15 06:42:14;;;;;;;11.85;6.68;;;20.40;99.90;;;;;;5059784;28;20075;-70
2023/08/15 06:44:43;;;;;;;11.98;6.85;;;20.40;99.90;;;;;;5057229;28;20055;-72
2023/08/15 06:47:10;;;;;;;12.65;5.43;;;20.50;99.90;;;;;;5058361;28;20078;-70
2023/08/15 06:49:36;;;;;;;8.73;5.15;;;20.50;99.90;;;;;;5062460;28;20052;-71
2023/08/15 06:52:03;;;;;;;11.10;5.70;;;20.50;99.90;;;;;;5077208;28;20131;-71
2023/08/15 06:54:29;;;;;;;9.73;4.88;;;20.60;99.90;;;;;;5058875;28;20123;-70
2023/08/15 06:56:57;;;;;;;9.38;4.55;;;20.70;99.90;;;;;;5070243;28;20052;-72
2023/08/15 06:59:23;;;;;;;13.57;5.32;;;20.80;99.90;;;;;;5060925;28;20757;-71
2023/08/15 07:01:52;;;;;;;14.52;4.28;;;20.70;99.90;;;;;;5060061;28;20063;-70
2023/08/15 07:04:18;;;;;;;10.02;4.85;;;20.80;99.90;;;;;;5076987;28;20048;-70
2023/08/15 07:06:46;;;;;;;16.23;5.57;;;20.80;99.90;;;;;;5044462;28;20124;-71
2023/08/15 07:09:12;;;;;;;11.50;5.10;;;20.80;99.90;;;;;;5075961;28;20041;-71
2023/08/15 07:11:38;;;;;;;9.65;4.32;;;20.90;99.90;;;;;;5074987;28;20056;-71
2023/08/15 07:14:03;;;;;;;10.32;4.32;;;20.80;99.90;;;;;;5056593;28;20036;-69
2023/08/15 07:16:29;;;;;;;8.27;3.90;;;20.80;99.90;;;;;;5057442;28;20124;-72
2023/08/15 07:18:55;;;;;;;15.25;3.90;;;20.90;99.90;;;;;;5056356;28;20044;-72
2023/08/15 07:21:21;;;;;;;11.30;4.47;;;20.90;99.90;;;;;;5056135;28;20052;-74
2023/08/15 07:23:46;;;;;;;15.65;4.70;;;20.80;99.90;;;;;;5058777;28;20132;-67
2023/08/15 07:26:13;;;;;;;11.23;4.82;;;20.70;99.90;;;;;;5054108;28;20063;-67
2023/08/15 07:28:39;;;;;;;8.60;4.22;;;20.50;99.90;;;;;;5058614;28;20054;-67
2023/08/15 07:31:05;;;;;;;11.68;4.35;;;20.60;99.90;;;;;;5055905;28;20400;-67
2023/08/15 07:33:31;;;;;;;11.13;4.65;;;20.70;99.90;;;;;;5057078;28;20075;-67
2023/08/15 07:35:57;;;;;;;10.38;4.97;;;20.60;99.90;;;;;;5038714;28;20052;-67
2023/08/15 07:38:23;;;;;;;12.07;4.55;;;20.70;99.90;;;;;;5057252;28;20076;-66
2023/08/15 07:40:49;;;;;;;16.63;4.55;;;20.70;99.90;;;;;;5057955;28;20049;-67
2023/08/15 07:43:15;;;;;;;14.68;4.68;;;20.70;99.90;;;;;;5054221;28;20053;-68
2023/08/15 07:45:42;;;;;;;16.35;4.57;;;20.80;99.90;;;;;;5058391;28;20049;-68
2023/08/15 07:48:07;;;;;;;12.65;4.50;;;20.80;99.90;;;;;;5054710;28;20055;-68
2023/08/15 07:50:34;;;;;;;15.43;4.32;;;20.90;99.90;;;;;;5058015;28;20057;-68
2023/08/15 07:53:00;;;;;;;9.27;3.97;;;20.90;99.90;;;;;;5056185;28;20670;-68
2023/08/15 07:55:32;;;;;;;17.83;5.50;;;20.90;99.90;;;;;;5055390;28;20055;-69
2023/08/15 07:57:58;;;;;;;14.10;5.40;;;21.00;99.90;;;;;;5056604;28;20134;-69
2023/08/15 08:00:24;;;;;;;16.17;4.53;;;21.00;99.90;;;;;;5054025;28;20057;-68
2023/08/15 08:02:50;;;;;;;7.80;3.70;;;20.90;99.90;;;;;;5056775;28;20048;-66
2023/08/15 08:05:16;;;;;;;9.07;3.25;;;21.10;99.90;;;;;;5055339;28;20140;-65
2023/08/15 08:07:43;;;;;;;8.60;3.55;;;21.10;99.90;;;;;;5058037;28;20810;-67
2023/08/15 08:10:09;;;;;;;12.27;3.88;;;21.20;99.90;;;;;;5056432;28;20057;-69
2023/08/15 08:12:35;;;;;;;18.13;4.85;;;21.30;99.90;;;;;;5056916;28;20515;-68
2023/08/15 08:15:02;;;;;;;11.25;3.47;;;21.20;99.90;;;;;;5056455;28;20115;-67
2023/08/15 08:17:29;;;;;;;11.75;3.90;;;21.10;99.90;;;;;;5053994;28;20044;-68
2023/08/15 08:19:54;;;;;;;12.45;4.38;;;21.10;99.90;;;;;;5058012;28;20067;-67
2023/08/15 08:22:20;;;;;;;17.00;4.53;;;21.10;99.90;;;;;;5053617;28;20072;-68
2023/08/15 08:24:48;;;;;;;13.70;5.30;;;21.10;99.90;;;;;;5056630;28;20052;-69
2023/08/15 08:27:14;;;;;;;11.18;4.80;;;21.10;99.90;;;;;;5056959;28;20053;-71
2023/08/15 08:29:40;;;;;;;10.77;4.95;;;21.00;99.90;;;;;;5058450;28;20094;-69
2023/08/15 08:32:06;;;;;;;12.05;5.18;;;21.10;99.90;;;;;;5059514;28;20051;-71
2023/08/15 08:34:31;;;;;;;7.07;4.78;;;21.10;99.90;;;;;;5075787;28;20079;-71
2023/08/15 08:36:57;;;;;;;8.73;5.20;;;21.10;99.90;;;;;;5078000;28;20048;-68
2023/08/15 08:39:23;;;;;;;11.82;5.93;;;21.10;99.90;;;;;;5056360;28;20040;-67
2023/08/15 08:41:48;;;;;;;10.95;5.97;;;21.20;99.90;;;;;;5077453;28;20396;-67
2023/08/15 08:44:17;;;;;;;14.48;7.00;;;21.30;99.90;;;;;;5056542;28;20049;-68
2023/08/15 08:46:44;;;;;;;15.90;7.32;;;21.30;99.90;;;;;;5058571;28;20040;-68
2023/08/15 08:49:11;;;;;;;10.50;7.05;;;21.20;99.90;;;;;;5076984;28;20852;-67
2023/08/15 08:51:46;;;;;;;11.65;6.93;;;21.30;99.90;;;;;;5056720;28;20499;-68
2023/08/15 08:54:11;;;;;;;9.85;7.03;;;21.40;99.90;;;;;;5077885;28;20424;-68
2023/08/15 08:56:41;;;;;;;10.23;6.57;;;21.50;99.90;;;;;;5074704;28;20060;-67
2023/08/15 08:59:10;;;;;;;11.23;6.68;;;21.60;99.90;;;;;;5061456;28;20044;-68
2023/08/15 09:01:37;;;;;;;12.93;6.40;;;21.70;99.90;;;;;;5079972;28;20063;-68
2023/08/15 09:04:03;;;;;;;10.65;5.85;;;21.70;99.90;;;;;;5045934;28;20053;-69
2023/08/15 09:06:29;;;;;;;12.65;6.80;;;21.70;99.90;;;;;;5081225;28;20139;-67
2023/08/15 09:08:58;;;;;;;10.27;6.53;;;21.80;99.90;;;;;;5060112;28;20083;-68
2023/08/15 09:11:35;;;;;;;8.00;5.63;;;21.80;99.90;;;;;;5081108;28;20075;-67
2023/08/15 09:14:05;;;;;;;6.93;5.28;;;21.90;99.90;;;;;;5058852;28;20075;-69
2023/08/15 09:16:32;;;;;;;7.80;4.85;;;21.90;99.90;;;;;;5081003;28;20047;-67
2023/08/15 09:19:02;;;;;;;12.85;4.72;;;22.00;99.90;;;;;;5061967;28;20044;-67
2023/08/15 09:21:29;;;;;;;12.95;5.68;;;22.10;99.90;;;;;;5061164;28;20044;-67
2023/08/15 09:23:59;;;;;;;16.77;6.05;;;22.10;99.90;;;;;;5081440;28;20061;-68
2023/08/15 09:26:25;;;;;;;7.20;4.22;;;22.10;99.90;;;;;;5078155;28;20053;-68
2023/08/15 09:28:51;;;;;;;11.32;4.03;;;22.20;99.90;;;;;;5063330;28;20040;-67
2023/08/15 09:31:18;;;;;;;13.60;4.43;;;22.10;99.90;;;;;;5059915;28;20049;-67
2023/08/15 09:33:44;;;;;;;9.32;4.38;;;21.90;99.90;;;;;;5045879;28;20451;-66
2023/08/15 09:36:10;;;;;;;11.18;4.25;;;21.80;99.90;;;;;;5061886;28;20044;-68
2023/08/15 09:38:36;;;;;;;10.38;3.85;;;21.80;99.90;;;;;;5060611;28;20036;-71
2023/08/15 09:41:02;;;;;;;11.55;3.85;;;21.70;99.90;;;;;;5080901;28;20533;-66
2023/08/15 09:43:29;;;;;;;8.23;3.47;;;21.60;99.90;;;;;;5075172;28;20116;-67
2023/08/15 09:45:58;;;;;;;10.00;3.53;;;21.60;99.90;;;;;;5080526;28;20048;-67
2023/08/15 09:48:25;;;;;;;8.07;3.22;;;21.70;99.90;;;;;;5037901;28;20094;-67
2023/08/15 09:50:54;;;;;;;10.57;3.08;;;21.90;99.90;;;;;;5079906;28;20059;-67
2023/08/15 09:53:22;;;;;;;7.60;3.15;;;21.90;99.90;;;;;;5061791;28;20052;-70
2023/08/15 09:55:48;;;;;;;6.15;2.58;;;22.10;99.90;;;;;;5057380;28;20048;-67
2023/08/15 09:58:14;;;;;;;9.70;2.80;;;22.10;99.90;;;;;;5062470;28;20041;-67
2023/08/15 10:00:41;;;;;;;6.28;2.47;;;22.10;99.90;;;;;;5077677;28;20116;-67
2023/08/15 10:03:18;;;;;;;13.15;2.50;;;22.10;99.90;;;;;;5080274;28;20507;-66
2023/08/15 10:05:49;;;;;;;9.32;2.40;;;22.10;99.90;;;;;;5060058;28;20052;-67
2023/08/15 10:08:18;;;;;;;8.10;2.90;;;22.10;99.90;;;;;;5061268;28;20057;-68
2023/08/15 10:10:45;;;;;;;5.38;2.72;;;21.90;99.90;;;;;;5078976;28;20041;-66
2023/08/15 10:13:12;;;;;;;7.25;2.65;;;21.90;99.90;;;;;;5059620;28;20040;-67
2023/08/15 10:15:38;;;;;;;5.43;2.42;;;21.90;99.90;;;;;;5079983;28;20511;-67
2023/08/15 10:18:04;;;;;;;7.45;2.60;;;21.90;99.90;;;;;;5077373;28;20085;-66
2023/08/15 10:20:38;;;;;;;6.28;2.33;;;21.80;99.90;;;;;;5061884;28;20064;-66
2023/08/15 10:23:07;;;;;;;4.25;2.00;;;21.90;99.90;;;;;;5079125;28;20052;-65
2023/08/15 10:25:40;;;;;;;5.80;2.03;;;21.90;99.90;;;;;;5060848;28;20048;-67
2023/08/15 10:28:10;;;;;;;7.88;2.03;;;22.00;99.90;;;;;;5062432;28;20159;-68
2023/08/15 10:30:45;;;;;;;4.40;1.75;;;22.20;99.90;;;;;;5059331;28;20056;-68
2023/08/15 10:33:12;;;;;;;6.28;1.90;;;22.40;99.90;;;;;;5080241;28;20074;-68
2023/08/15 10:35:41;;;;;;;7.55;2.65;;;22.60;99.90;;;;;;5077540;28;20052;-69
2023/08/15 10:38:15;;;;;;;7.78;1.80;;;22.70;99.90;;;;;;5044768;28;20064;-67
2023/08/15 10:40:42;;;;;;;6.20;1.70;;;22.80;99.90;;;;;;5061574;28;20048;-68
2023/08/15 10:43:11;;;;;;;8.55;1.90;;;22.80;99.90;;;;;;5059275;28;20044;-68
2023/08/15 10:45:39;;;;;;;7.65;2.00;;;22.80;99.90;;;;;;5045316;28;20045;-69
2023/08/15 10:48:05;;;;;;;5.85;1.80;;;22.80;99.90;;;;;;5058804;28;20079;-69
2023/08/15 10:50:31;;;;;;;6.88;2.20;;;22.90;99.90;;;;;;5061280;28;20128;-69
2023/08/15 10:53:02;;;;;;;6.57;2.13;;;22.90;99.90;;;;;;5059854;28;20084;-68
2023/08/15 10:55:30;;;;;;;5.38;2.10;;;22.90;99.90;;;;;;5060192;28;20040;-68
2023/08/15 10:57:56;;;;;;;8.52;2.10;;;22.90;99.90;;;;;;5061407;28;20064;-68
2023/08/15 11:00:22;;;;;;;7.90;2.53;;;22.80;99.90;;;;;;5076640;28;20406;-69
2023/08/15 11:02:51;;;;;;;3.95;2.15;;;22.80;99.90;;;;;;5079110;28;20121;-68
2023/08/15 11:05:18;;;;;;;8.88;2.47;;;22.80;99.90;;;;;;5058607;28;20050;-68
2023/08/15 11:07:44;;;;;;;8.63;2.10;;;22.80;99.90;;;;;;5079177;28;20055;-69
2023/08/15 11:10:12;;;;;;;9.80;2.58;;;22.80;99.90;;;;;;5059835;28;20067;-68
2023/08/15 11:12:45;;;;;;;5.38;1.75;;;22.90;99.90;;;;;;5059719;28;20075;-68
2023/08/15 11:15:11;;;;;;;3.55;1.77;;;22.90;99.90;;;;;;5061174;28;20055;-68
2023/08/15 11:17:37;;;;;;;6.85;2.40;;;22.90;99.90;;;;;;5041700;28;20044;-68
2023/08/15 11:20:05;;;;;;;4.97;2.10;;;23.00;99.90;;;;;;5061133;28;20052;-68
2023/08/15 11:22:31;;;;;;;7.80;1.85;;;23.10;99.90;;;;;;5058451;28;20063;-69
2023/08/15 11:25:00;;;;;;;6.50;2.10;;;23.10;99.90;;;;;;5060704;28;20051;-67
2023/08/15 11:27:25;;;;;;;7.78;2.13;;;23.10;99.90;;;;;;5059797;28;20123;-69
2023/08/15 11:29:58;;;;;;;6.55;2.25;;;23.20;99.90;;;;;;5057116;28;20076;-68
2023/08/15 11:32:25;;;;;;;6.22;2.42;;;23.20;99.90;;;;;;5063918;28;20065;-68
2023/08/15 11:34:50;;;;;;;7.90;2.00;;;23.30;99.90;;;;;;5076888;28;20052;-68
2023/08/15 11:37:17;;;;;;;4.70;2.03;;;23.30;99.90;;;;;;5067034;28;20093;-68
2023/08/15 11:39:50;;;;;;;4.63;1.88;;;23.30;99.90;;;;;;5074905;28;20045;-67
2023/08/15 11:42:16;;;;;;;13.93;3.03;;;23.30;99.90;;;;;;5077540;28;20109;-69
2023/08/15 11:44:42;;;;;;;8.10;2.35;;;23.30;99.90;;;;;;5076985;28;20048;-69
2023/08/15 11:47:08;;;;;;;7.65;2.50;;;23.40;99.90;;;;;;5075381;28;20470;-68
2023/08/15 11:49:34;;;;;;;6.10;2.13;;;23.40;99.90;;;;;;5076738;28;20048;-68
2023/08/15 11:52:04;;;;;;;5.45;1.95;;;23.40;99.90;;;;;;5039889;28;20074;-68
2023/08/15 11:54:29;;;;;;;7.15;2.50;;;23.60;99.90;;;;;;5077474;28;20048;-68
2023/08/15 11:56:55;;;;;;;6.75;2.45;;;23.70;99.90;;;;;;5075111;28;20036;-69
2023/08/15 11:59:24;;;;;;;7.35;1.98;;;23.60;99.90;;;;;;5076970;28;20047;-69
2023/08/15 12:01:50;;;;;;;7.88;2.50;;;23.60;99.90;;;;;;5077565;28;20100;-68
2023/08/15 12:04:16;;;;;;;7.03;2.75;;;23.60;99.90;;;;;;5076506;28;20044;-67
2023/08/15 12:06:42;;;;;;;10.23;2.63;;;23.60;99.90;;;;;;5060679;28;20048;-70
2023/08/15 12:09:08;;;;;;;6.65;2.92;;;23.50;99.90;;;;;;5057829;28;20064;-69
2023/08/15 12:11:34;;;;;;;8.57;2.80;;;23.30;99.90;;;;;;5078312;28;20044;-69
2023/08/15 12:14:02;;;;;;;8.32;2.30;;;23.30;99.90;;;;;;5057934;28;20106;-70
2023/08/15 12:16:28;;;;;;;9.75;3.72;;;23.30;99.90;;;;;;5059875;28;20078;-69
2023/08/15 12:18:54;;;;;;;8.70;2.55;;;23.30;99.90;;;;;;5077517;28;20041;-70
2023/08/15 12:21:19;;;;;;;7.95;2.97;;;23.20;99.90;;;;;;5076280;28;20135;-69
2023/08/15 12:23:45;;;;;;;7.63;2.55;;;23.10;99.90;;;;;;5078159;28;20068;-71
2023/08/15 12:26:11;;;;;;;9.25;2.58;;;23.00;99.90;;;;;;5040457;28;20050;-70
2023/08/15 12:28:37;;;;;;;10.60;2.70;;;23.10;99.90;;;;;;5059713;28;20052;-69
2023/08/15 12:31:02;;;;;;;8.00;2.75;;;23.00;99.90;;;;;;5067881;28;20045;-70
2023/08/15 12:33:33;;;;;;;8.15;3.20;;;23.00;99.90;;;;;;5057358;28;20045;-69